ADDS METAR Data INFO
IDs: Format: Raw Decoded Include TAF

Data at: 0856 UTC 19 Jun 2018

KDLZ 190835Z AUTO 29008KT 10SM SCT038 SCT045 SCT055 25/22 A2997 RMK AO2
KDLZ 190815Z AUTO 27004KT 10SM SCT045 SCT055 26/22 A2996 RMK AO2 LTG DSNT NW
KDLZ 190755Z AUTO 28005KT 10SM SCT045 26/22 A2996 RMK AO2 LTG DSNT NW
KDLZ 190735Z AUTO 27008KT 10SM SCT034 26/22 A2996 RMK AO2
KDLZ 190715Z AUTO 29007KT 10SM SCT036 26/22 A2997 RMK AO2
KDLZ 190655Z AUTO 28008KT 10SM SCT036 SCT050 26/22 A2997 RMK AO2
KDLZ 190635Z AUTO 28008KT 10SM SCT037 SCT050 26/21 A2998 RMK AO2
KDLZ 190615Z AUTO 27006KT 10SM SCT039 BKN055 27/21 A2998 RMK AO2
KDLZ 190555Z AUTO 26004KT 10SM SCT055 27/21 A2997 RMK AO2
KDLZ 190535Z AUTO 27007KT 10SM CLR 27/21 A2997 RMK AO2
KDLZ 190515Z AUTO 25005KT 10SM CLR 26/21 A2997 RMK AO2
KDLZ 190455Z AUTO 24005KT 10SM CLR 27/21 A2997 RMK AO2
KDLZ 190435Z AUTO 24006KT 10SM CLR 27/21 A2997 RMK AO2
KDLZ 190415Z AUTO 24006KT 10SM CLR 27/21 A2997 RMK AO2
KDLZ 190355Z AUTO 25005KT 10SM CLR 27/21 A2997 RMK AO2 LTG DSNT N
KDLZ 190335Z AUTO 24006KT 10SM CLR 27/21 A2997 RMK AO2
KDLZ 190315Z AUTO 23006KT 10SM CLR 27/21 A2997 RMK AO2
KDLZ 190255Z AUTO 23005KT 10SM CLR 27/21 A2997 RMK AO2
KDLZ 190235Z AUTO 23003KT 10SM CLR 27/21 A2997 RMK AO2
KDLZ 190215Z AUTO 23005KT 10SM CLR 28/21 A2997 RMK AO2
KDLZ 190155Z AUTO 24004KT 10SM CLR 28/21 A2996 RMK AO2
KDLZ 190135Z AUTO 23004KT 10SM CLR 28/20 A2996 RMK AO2
KDLZ 190115Z AUTO 24006KT 10SM CLR 29/20 A2996 RMK AO2 LTG DSNT N
KDLZ 190055Z AUTO 25005KT 10SM CLR 30/20 A2996 RMK AO2
KDLZ 190035Z AUTO 25006KT 10SM CLR 31/20 A2996 RMK AO2
KDLZ 190015Z AUTO 25008KT 10SM CLR 31/20 A2996 RMK AO2
KDLZ 182355Z AUTO 25006KT 10SM CLR 31/20 A2995 RMK AO2
KDLZ 182335Z AUTO 25010KT 10SM CLR 32/20 A2995 RMK AO2
KDLZ 182315Z AUTO 25009G15KT 10SM CLR 32/20 A2995 RMK AO2
KDLZ 182255Z AUTO 25010G16KT 10SM CLR 32/20 A2995 RMK AO2
KDLZ 182235Z AUTO 25009KT 10SM CLR 32/20 A2995 RMK AO2
KDLZ 182215Z AUTO 25007G16KT 10SM CLR 32/20 A2996 RMK AO2
KDLZ 182155Z AUTO 23008KT 10SM SCT050 SCT085 32/21 A2996 RMK AO2
KDLZ 182135Z AUTO 24011G15KT 10SM SCT055 SCT070 SCT085 32/21 A2997 RMK AO2
KDLZ 182115Z AUTO 24009KT 10SM SCT060 32/21 A2997 RMK AO2
KDLZ 182055Z AUTO 24007G20KT 10SM SCT050 SCT060 SCT085 33/20 A2998 RMK AO2
KDLZ 182035Z AUTO 25007KT 10SM SCT050 SCT085 32/22 A2998 RMK AO2
KDLZ 182015Z AUTO 29007KT 10SM SCT048 SCT050 32/22 A3000 RMK AO2
KDLZ 181955Z AUTO 26006KT 10SM SCT050 SCT075 SCT110 32/22 A3000 RMK AO2
KDLZ 181935Z AUTO 28010G18KT 10SM -RA SCT026 SCT050 BKN110 31/22 A3001 RMK AO2
KDLZ 181915Z AUTO 25008KT 10SM CLR 33/21 A3001 RMK AO2
KDLZ 181855Z AUTO 25009G15KT 10SM SCT046 33/21 A3002 RMK AO2 LTG DSNT E
KDLZ 181835Z AUTO 27009G15KT 10SM SCT046 BKN060 32/21 A3003 RMK AO2
KDLZ 181815Z AUTO 26006KT 10SM BKN046 BKN060 BKN070 32/21 A3004 RMK AO2
KDLZ 181755Z AUTO 26006G14KT 10SM SCT044 SCT050 32/21 A3005 RMK AO2
KDLZ 181735Z AUTO 26010KT 10SM SCT044 SCT050 32/21 A3006 RMK AO2
KDLZ 181715Z AUTO 26007KT 10SM SCT042 SCT050 32/21 A3007 RMK AO2
KDLZ 181655Z AUTO 26007G16KT 10SM CLR 31/22 A3007 RMK AO2
KDLZ 181635Z AUTO 28010G14KT 10SM 31/22 A3008 RMK AO2
KDLZ 181615Z AUTO 27011G16KT 10SM 31/21 A3008 RMK AO2
KDLZ 181555Z AUTO 26007KT 10SM 31/22 A3009 RMK AO2
KDLZ 181535Z AUTO 26007KT 10SM 31/22 A3008 RMK AO2
KDLZ 181515Z AUTO 27007G15KT 10SM 30/22 A3008 RMK AO2
KDLZ 181455Z AUTO 25009KT 10SM 30/22 A3008 RMK AO2
KDLZ 181435Z AUTO 24010KT 10SM 30/22 A3008 RMK AO2
KDLZ 181415Z AUTO 24008KT 10SM 29/22 A3008 RMK AO2
KDLZ 181355Z AUTO 26006KT 10SM 28/22 A3008 RMK AO2
KDLZ 181335Z AUTO 24005KT 10SM CLR 28/23 A3009 RMK AO2
KDLZ 181315Z AUTO 24006KT 10SM CLR 27/22 A3009 RMK AO2
KDLZ 181255Z AUTO 24005KT 10SM CLR 26/22 A3009 RMK AO2
KDLZ 181235Z AUTO 23006KT 10SM CLR 26/22 A3009 RMK AO2
KDLZ 181215Z AUTO 21004KT 7SM CLR 25/22 A3008 RMK AO2
KDLZ 181155Z AUTO 00000KT 7SM CLR 24/22 A3008 RMK AO2
KDLZ 181135Z AUTO 21003KT 7SM CLR 23/22 A3008 RMK AO2
KDLZ 181115Z AUTO 00000KT 7SM CLR 23/22 A3008 RMK AO2
KDLZ 181055Z AUTO 17003KT 5SM BR CLR 23/22 A3008 RMK AO2
KDLZ 181035Z AUTO 00000KT 7SM CLR 23/21 A3008 RMK AO2
KDLZ 181015Z AUTO 00000KT 7SM CLR 23/21 A3008 RMK AO2
KDLZ 180955Z AUTO 00000KT 7SM CLR 23/21 A3007 RMK AO2
KDLZ 180935Z AUTO 21003KT 10SM CLR 23/21 A3007 RMK AO2
KDLZ 180915Z AUTO 19004KT 10SM CLR 23/21 A3007 RMK AO2
KDLZ 180855Z AUTO 18004KT 10SM CLR 23/21 A3007 RMK AO2
KDLZ 180835Z AUTO 00000KT 10SM CLR 23/21 A3007 RMK AO2
KDLZ 180815Z AUTO 00000KT 10SM CLR 23/21 A3007 RMK AO2
KDLZ 180755Z AUTO 00000KT 10SM CLR 23/21 A3007 RMK AO2
KDLZ 180735Z AUTO 00000KT 10SM CLR 24/21 A3007 RMK AO2
KDLZ 180715Z AUTO 00000KT 10SM CLR 24/21 A3007 RMK AO2
KDLZ 180655Z AUTO 19004KT 10SM CLR 25/21 A3007 RMK AO2
KDLZ 180635Z AUTO 19004KT 10SM CLR 25/22 A3008 RMK AO2
KDLZ 180615Z AUTO 19003KT 10SM CLR 25/22 A3008 RMK AO2
KDLZ 180555Z AUTO 19004KT 10SM CLR 25/22 A3009 RMK AO2
KDLZ 180535Z AUTO 21003KT 10SM CLR 25/22 A3009 RMK AO2
KDLZ 180515Z AUTO 20003KT 10SM CLR 25/22 A3009 RMK AO2
KDLZ 180455Z AUTO 19003KT 10SM CLR 26/22 A3009 RMK AO2
KDLZ 180435Z AUTO 20003KT 10SM CLR 26/21 A3009 RMK AO2
KDLZ 180415Z AUTO 18005KT 10SM CLR 26/21 A3008 RMK AO2
KDLZ 180355Z AUTO 19004KT 10SM CLR 26/21 A3008 RMK AO2
KDLZ 180335Z AUTO 19003KT 10SM CLR 27/21 A3007 RMK AO2
KDLZ 180315Z AUTO 20003KT 10SM CLR 27/21 A3007 RMK AO2
KDLZ 180255Z AUTO 21003KT 10SM CLR 27/21 A3007 RMK AO2
KDLZ 180235Z AUTO 21003KT 10SM CLR 27/22 A3007 RMK AO2
KDLZ 180215Z AUTO 21003KT 10SM CLR 27/22 A3007 RMK AO2
KDLZ 180155Z AUTO 20003KT 10SM CLR 27/22 A3006 RMK AO2
KDLZ 180135Z AUTO 00000KT 10SM CLR 28/22 A3005 RMK AO2
KDLZ 180115Z AUTO 22003KT 10SM CLR 28/22 A3004 RMK AO2
KDLZ 180055Z AUTO 22003KT 10SM CLR 29/22 A3004 RMK AO2
KDLZ 180035Z AUTO 22003KT 10SM CLR 30/21 A3005 RMK AO2
KDLZ 180015Z AUTO 24004KT 10SM CLR 30/21 A3005 RMK AO2
KDLZ 172355Z AUTO 24003KT 10SM CLR 31/21 A3005 RMK AO2
KDLZ 172335Z AUTO 22005KT 10SM CLR 31/21 A3005 RMK AO2
KDLZ 172315Z AUTO 22005KT 10SM CLR 32/21 A3005 RMK AO2
KDLZ 172255Z AUTO 21005KT 10SM CLR 32/20 A3005 RMK AO2
KDLZ 172235Z AUTO 23004KT 10SM CLR 32/20 A3006 RMK AO2
KDLZ 172215Z AUTO 23004KT 10SM CLR 32/21 A3006 RMK AO2 LTG DSNT S
KDLZ 172155Z AUTO 21006KT 10SM SCT055 33/20 A3007 RMK AO2
KDLZ 172135Z AUTO 22005KT 10SM SCT055 33/20 A3007 RMK AO2
KDLZ 172115Z AUTO 22005KT 10SM CLR 33/20 A3007 RMK AO2